EZY65J EDXW-EDHL
Flight info
| Callsign | EZY65J |
|---|---|
| Flight time | 0h 32m |
| Altitude | 23000 |
| Route | OLDIP1B OLDIP DCT PIZID DCT EKERN T905 BOGMU BOGMU1R |
| Aircraft | A20N/M-SDE2E3FGHIRWXY/LB1 |
Departure
| Time | 2026-04-23 16:52 |
|---|---|
| Airport | Westerland Sylt Airport (EDXW) |
Arrival
| Time | 2026-04-23 17:24 |
|---|---|
| Airport | Lübeck Blankensee Airport (EDHL) |
| Time | Latitude | Longitude | Altitude | Speed | Heading |
|---|---|---|---|---|---|
| 2026-04-23 16:23 | 54.91386 | 8.33122 | 30 ft | 0 kts | 91° |
| 2026-04-23 16:45 | 54.91386 | 8.33162 | 30 ft | 10 kts | 91° |
| 2026-04-23 16:45 | 54.91334 | 8.33236 | 32 ft | 12 kts | 192° |
| 2026-04-23 16:46 | 54.91223 | 8.33177 | 36 ft | 18 kts | 184° |
| 2026-04-23 16:46 | 54.91084 | 8.33178 | 36 ft | 19 kts | 181° |
| 2026-04-23 16:46 | 54.90956 | 8.33114 | 39 ft | 15 kts | 179° |
| 2026-04-23 16:46 | 54.90871 | 8.33180 | 37 ft | 20 kts | 159° |
| 2026-04-23 16:47 | 54.90704 | 8.33229 | 35 ft | 20 kts | 175° |
| 2026-04-23 16:47 | 54.90578 | 8.33246 | 32 ft | 20 kts | 174° |
| 2026-04-23 16:47 | 54.90425 | 8.33328 | 30 ft | 25 kts | 154° |
| 2026-04-23 16:47 | 54.90298 | 8.33559 | 29 ft | 28 kts | 118° |
| 2026-04-23 16:48 | 54.90255 | 8.33803 | 28 ft | 20 kts | 102° |
| 2026-04-23 16:48 | 54.90238 | 8.34014 | 28 ft | 17 kts | 97° |
| 2026-04-23 16:48 | 54.90247 | 8.34254 | 29 ft | 24 kts | 79° |
| 2026-04-23 16:48 | 54.90275 | 8.34530 | 32 ft | 22 kts | 79° |
| 2026-04-23 16:49 | 54.90292 | 8.34690 | 34 ft | 19 kts | 80° |
| 2026-04-23 16:49 | 54.90324 | 8.34996 | 39 ft | 16 kts | 79° |
| 2026-04-23 16:49 | 54.90334 | 8.35053 | 40 ft | 2 kts | 65° |
| 2026-04-23 16:49 | 54.90383 | 8.35157 | 42 ft | 15 kts | 30° |
| 2026-04-23 16:50 | 54.90463 | 8.35111 | 42 ft | 0 kts | 327° |
| 2026-04-23 16:52 | 54.90469 | 8.35105 | 42 ft | 11 kts | 327° |
| 2026-04-23 16:52 | 54.90789 | 8.34708 | 39 ft | 98 kts | 324° |
| 2026-04-23 16:52 | 54.91488 | 8.33858 | 382 ft | 135 kts | 325° |
| 2026-04-23 16:52 | 54.92334 | 8.32869 | 1112 ft | 154 kts | 327° |
| 2026-04-23 16:53 | 54.93285 | 8.31736 | 1791 ft | 187 kts | 326° |
| 2026-04-23 16:53 | 54.94432 | 8.30220 | 2177 ft | 230 kts | 324° |
| 2026-04-23 16:53 | 54.95732 | 8.28348 | 2930 ft | 254 kts | 318° |
| 2026-04-23 16:53 | 54.96897 | 8.25755 | 3420 ft | 287 kts | 303° |
| 2026-04-23 16:54 | 54.97720 | 8.22424 | 4092 ft | 314 kts | 292° |
| 2026-04-23 16:54 | 54.98255 | 8.18495 | 4122 ft | 337 kts | 279° |
| 2026-04-23 16:54 | 54.97840 | 8.14690 | 4896 ft | 324 kts | 247° |
| 2026-04-23 16:54 | 54.96253 | 8.11840 | 5904 ft | 334 kts | 213° |
| 2026-04-23 16:55 | 54.94056 | 8.10892 | 7106 ft | 324 kts | 180° |
| 2026-04-23 16:55 | 54.91921 | 8.11478 | 8515 ft | 306 kts | 165° |
| 2026-04-23 16:55 | 54.89888 | 8.12589 | 9507 ft | 311 kts | 161° |
| 2026-04-23 16:55 | 54.87860 | 8.13978 | 9887 ft | 315 kts | 152° |
| 2026-04-23 16:56 | 54.86125 | 8.16275 | 9579 ft | 314 kts | 128° |
| 2026-04-23 16:56 | 54.84977 | 8.19445 | 9203 ft | 308 kts | 114° |
| 2026-04-23 16:56 | 54.84068 | 8.22509 | 9922 ft | 275 kts | 115° |
| 2026-04-23 16:56 | 54.82941 | 8.25420 | 10086 ft | 309 kts | 126° |
| 2026-04-23 16:57 | 54.81310 | 8.27987 | 9692 ft | 320 kts | 143° |
| 2026-04-23 16:57 | 54.79455 | 8.30118 | 9302 ft | 319 kts | 147° |
| 2026-04-23 16:57 | 54.77631 | 8.32271 | 8912 ft | 315 kts | 135° |
| 2026-04-23 16:57 | 54.76199 | 8.35098 | 8538 ft | 310 kts | 127° |
| 2026-04-23 16:58 | 54.74864 | 8.37962 | 8168 ft | 308 kts | 125° |
| 2026-04-23 16:58 | 54.73570 | 8.40896 | 7846 ft | 301 kts | 125° |
| 2026-04-23 16:58 | 54.72377 | 8.43345 | 8985 ft | 252 kts | 130° |
| 2026-04-23 16:58 | 54.71269 | 8.45665 | 10099 ft | 244 kts | 123° |
| 2026-04-23 16:59 | 54.70227 | 8.48024 | 10966 ft | 250 kts | 123° |
| 2026-04-23 16:59 | 54.69196 | 8.50489 | 11764 ft | 253 kts | 119° |
| 2026-04-23 16:59 | 54.68219 | 8.52982 | 12819 ft | 245 kts | 122° |
| 2026-04-23 16:59 | 54.67250 | 8.55399 | 13772 ft | 244 kts | 119° |
| 2026-04-23 17:00 | 54.66269 | 8.57914 | 14261 ft | 263 kts | 118° |
| 2026-04-23 17:00 | 54.65233 | 8.60654 | 14729 ft | 282 kts | 121° |
| 2026-04-23 17:00 | 54.64019 | 8.63529 | 14756 ft | 321 kts | 123° |
| 2026-04-23 17:00 | 54.62667 | 8.66882 | 14946 ft | 348 kts | 121° |
| 2026-04-23 17:01 | 54.61286 | 8.70355 | 15816 ft | 352 kts | 121° |
| 2026-04-23 17:01 | 54.59899 | 8.73917 | 16558 ft | 363 kts | 121° |
| 2026-04-23 17:01 | 54.58456 | 8.77581 | 17228 ft | 375 kts | 122° |
| 2026-04-23 17:01 | 54.56982 | 8.81351 | 17772 ft | 388 kts | 121° |
| 2026-04-23 17:02 | 54.55990 | 8.83909 | 18511 ft | 384 kts | 121° |
| 2026-04-23 17:02 | 54.54056 | 8.88896 | 20291 ft | 363 kts | 121° |
| 2026-04-23 17:02 | 54.52617 | 8.92607 | 20664 ft | 384 kts | 122° |
| 2026-04-23 17:02 | 54.51091 | 8.96539 | 20902 ft | 403 kts | 122° |
| 2026-04-23 17:03 | 54.49473 | 9.00508 | 21651 ft | 407 kts | 125° |
| 2026-04-23 17:03 | 54.47768 | 9.04464 | 22090 ft | 420 kts | 126° |
| 2026-04-23 17:03 | 54.45971 | 9.08535 | 21715 ft | 436 kts | 126° |
| 2026-04-23 17:03 | 54.44165 | 9.12643 | 21298 ft | 426 kts | 124° |
| 2026-04-23 17:04 | 54.42466 | 9.16902 | 20876 ft | 433 kts | 122° |
| 2026-04-23 17:04 | 54.40802 | 9.21163 | 20445 ft | 425 kts | 122° |
| 2026-04-23 17:04 | 54.39169 | 9.25342 | 19982 ft | 417 kts | 122° |
| 2026-04-23 17:04 | 54.37542 | 9.29498 | 19077 ft | 422 kts | 122° |
| 2026-04-23 17:05 | 54.35911 | 9.33666 | 18042 ft | 429 kts | 122° |
| 2026-04-23 17:05 | 54.34227 | 9.37962 | 16758 ft | 439 kts | 122° |
| 2026-04-23 17:05 | 54.32516 | 9.42326 | 15715 ft | 440 kts | 122° |
| 2026-04-23 17:05 | 54.30816 | 9.46655 | 14578 ft | 434 kts | 122° |
| 2026-04-23 17:06 | 54.29135 | 9.50930 | 13387 ft | 429 kts | 122° |
| 2026-04-23 17:06 | 54.27480 | 9.55135 | 12368 ft | 421 kts | 122° |
| 2026-04-23 17:06 | 54.25902 | 9.59138 | 12238 ft | 391 kts | 122° |
| 2026-04-23 17:06 | 54.24396 | 9.62958 | 12142 ft | 389 kts | 121° |
| 2026-04-23 17:07 | 54.22928 | 9.66675 | 12021 ft | 365 kts | 121° |
| 2026-04-23 17:07 | 54.21554 | 9.70149 | 11903 ft | 342 kts | 121° |
| 2026-04-23 17:07 | 54.20261 | 9.73416 | 11776 ft | 321 kts | 121° |
| 2026-04-23 17:07 | 54.19030 | 9.76528 | 11426 ft | 310 kts | 121° |
| 2026-04-23 17:08 | 54.17835 | 9.79547 | 11019 ft | 303 kts | 121° |
| 2026-04-23 17:08 | 54.16673 | 9.82482 | 10499 ft | 301 kts | 121° |
| 2026-04-23 17:08 | 54.15520 | 9.85393 | 10283 ft | 293 kts | 121° |
| 2026-04-23 17:08 | 54.14351 | 9.88348 | 10196 ft | 302 kts | 121° |
| 2026-04-23 17:09 | 54.13170 | 9.91326 | 10100 ft | 308 kts | 121° |
| 2026-04-23 17:09 | 54.12368 | 9.93353 | 10032 ft | 313 kts | 121° |
| 2026-04-23 17:09 | 54.11152 | 9.96416 | 9952 ft | 310 kts | 121° |
| 2026-04-23 17:09 | 54.09942 | 9.99465 | 9944 ft | 310 kts | 121° |
| 2026-04-23 17:10 | 54.08728 | 10.02520 | 9951 ft | 311 kts | 121° |
| 2026-04-23 17:10 | 54.07515 | 10.05572 | 9939 ft | 310 kts | 121° |
| 2026-04-23 17:10 | 54.06320 | 10.08577 | 9944 ft | 310 kts | 121° |
| 2026-04-23 17:10 | 54.05109 | 10.11619 | 9943 ft | 310 kts | 121° |
| 2026-04-23 17:11 | 54.03897 | 10.14660 | 9947 ft | 310 kts | 121° |
| 2026-04-23 17:11 | 54.02683 | 10.17708 | 9933 ft | 310 kts | 121° |
| 2026-04-23 17:11 | 54.01470 | 10.20750 | 9935 ft | 310 kts | 121° |
| 2026-04-23 17:11 | 54.00274 | 10.23748 | 9940 ft | 310 kts | 121° |
| 2026-04-23 17:12 | 53.99140 | 10.26836 | 9829 ft | 305 kts | 110° |
| 2026-04-23 17:12 | 53.98646 | 10.30304 | 9303 ft | 301 kts | 91° |
| 2026-04-23 17:12 | 53.98453 | 10.33903 | 8486 ft | 310 kts | 90° |
| 2026-04-23 17:12 | 53.98257 | 10.37614 | 7613 ft | 320 kts | 91° |
| 2026-04-23 17:13 | 53.98059 | 10.41294 | 7314 ft | 302 kts | 90° |
| 2026-04-23 17:13 | 53.97895 | 10.44727 | 7115 ft | 280 kts | 89° |
| 2026-04-23 17:13 | 53.97754 | 10.47915 | 6933 ft | 261 kts | 89° |
| 2026-04-23 17:13 | 53.97620 | 10.50926 | 6578 ft | 252 kts | 88° |
| 2026-04-23 17:14 | 53.97492 | 10.53906 | 6058 ft | 251 kts | 88° |
| 2026-04-23 17:14 | 53.97365 | 10.56820 | 5602 ft | 249 kts | 89° |
| 2026-04-23 17:14 | 53.97239 | 10.59745 | 5128 ft | 247 kts | 89° |
| 2026-04-23 17:14 | 53.97113 | 10.62614 | 4847 ft | 236 kts | 89° |
| 2026-04-23 17:15 | 53.96992 | 10.65331 | 4581 ft | 227 kts | 89° |
| 2026-04-23 17:15 | 53.96876 | 10.67991 | 4185 ft | 225 kts | 89° |
| 2026-04-23 17:15 | 53.96764 | 10.70600 | 3813 ft | 223 kts | 90° |
| 2026-04-23 17:15 | 53.96650 | 10.73221 | 3422 ft | 223 kts | 90° |
| 2026-04-23 17:16 | 53.96535 | 10.75828 | 3127 ft | 216 kts | 90° |
| 2026-04-23 17:16 | 53.96422 | 10.78432 | 3038 ft | 224 kts | 90° |
| 2026-04-23 17:16 | 53.96307 | 10.81043 | 2943 ft | 220 kts | 90° |
| 2026-04-23 17:16 | 53.96192 | 10.83654 | 2941 ft | 222 kts | 90° |
| 2026-04-23 17:17 | 53.96077 | 10.86270 | 2946 ft | 222 kts | 90° |
| 2026-04-23 17:17 | 53.95964 | 10.88834 | 2938 ft | 220 kts | 90° |
| 2026-04-23 17:17 | 53.95849 | 10.91450 | 2939 ft | 223 kts | 90° |
| 2026-04-23 17:17 | 53.95730 | 10.94063 | 2938 ft | 222 kts | 90° |
| 2026-04-23 17:18 | 53.95442 | 10.99267 | 2929 ft | 224 kts | 104° |
| 2026-04-23 17:18 | 53.94620 | 11.01532 | 2940 ft | 228 kts | 133° |
| 2026-04-23 17:18 | 53.93561 | 11.03545 | 2945 ft | 228 kts | 129° |
| 2026-04-23 17:19 | 53.92484 | 11.05440 | 2934 ft | 226 kts | 143° |
| 2026-04-23 17:19 | 53.91054 | 11.06529 | 2940 ft | 227 kts | 168° |
| 2026-04-23 17:19 | 53.89550 | 11.06308 | 2937 ft | 216 kts | 212° |
| 2026-04-23 17:19 | 53.88519 | 11.04573 | 2940 ft | 208 kts | 242° |
| 2026-04-23 17:20 | 53.87585 | 11.02688 | 2946 ft | 208 kts | 236° |
| 2026-04-23 17:20 | 53.85765 | 10.98895 | 2936 ft | 207 kts | 242° |
| 2026-04-23 17:21 | 53.84817 | 10.94445 | 2939 ft | 201 kts | 258° |
| 2026-04-23 17:21 | 53.84403 | 10.92216 | 2937 ft | 188 kts | 259° |
| 2026-04-23 17:21 | 53.83725 | 10.88544 | 2890 ft | 152 kts | 259° |
| 2026-04-23 17:22 | 53.83453 | 10.86800 | 2708 ft | 157 kts | 262° |
| 2026-04-23 17:22 | 53.82996 | 10.83398 | 2012 ft | 140 kts | 265° |
| 2026-04-23 17:23 | 53.82287 | 10.80402 | 1223 ft | 146 kts | 250° |
| 2026-04-23 17:23 | 53.81882 | 10.78882 | 881 ft | 136 kts | 254° |
| 2026-04-23 17:23 | 53.81367 | 10.76093 | 432 ft | 111 kts | 249° |
| 2026-04-23 17:24 | 53.81100 | 10.74821 | 328 ft | 113 kts | 250° |
| 2026-04-23 17:24 | 53.80862 | 10.73607 | 154 ft | 105 kts | 251° |
| 2026-04-23 17:24 | 53.80550 | 10.72016 | 58 ft | 35 kts | 251° |
| 2026-04-23 17:25 | 53.80400 | 10.71226 | 60 ft | 36 kts | 252° |
| 2026-04-23 17:25 | 53.80326 | 10.70844 | 55 ft | 34 kts | 252° |
| 2026-04-23 17:26 | 53.80400 | 10.70498 | 58 ft | 13 kts | 326° |
| 2026-04-23 17:26 | 53.80430 | 10.70387 | 51 ft | 10 kts | 250° |
| 2026-04-23 17:27 | 53.80453 | 10.70262 | 55 ft | 3 kts | 322° |
| 2026-04-23 17:27 | 53.80460 | 10.70254 | 55 ft | 0 kts | 323° |